Time;durP1;ratioP1;P1;durP2;ratioP2;P2;SDS_P1;SDS_P2;PMS_P1;PMS_P2;Temp;Humidity;BMP_temperature;BMP_pressure;BME280_temperature;BME280_humidity;BME280_pressure;Samples;Min_cycle;Max_cycle;Signal;HPM_P1;HPM_P2
2022/07/18 00:02:10;;;;;;;5.18;2.13;;;30.00;35.30;;;;;;5988821;29;20041;-71
2022/07/18 00:05:10;;;;;;;2.75;2.25;;;30.00;35.40;;;;;;5989748;29;20026;-73
2022/07/18 00:08:12;;;;;;;7.63;2.30;;;30.00;35.40;;;;;;6003357;29;20460;-73
2022/07/18 00:11:13;;;;;;;9.95;2.28;;;30.00;35.40;;;;;;5989278;29;20072;-73
2022/07/18 00:14:14;;;;;;;8.07;2.08;;;30.00;35.50;;;;;;5988627;29;20046;-73
2022/07/18 00:17:14;;;;;;;9.13;2.42;;;30.00;35.60;;;;;;6004932;29;20065;-73
2022/07/18 00:20:16;;;;;;;2.47;1.90;;;29.90;35.60;;;;;;5991282;29;20470;-73
2022/07/18 00:23:16;;;;;;;2.88;2.00;;;29.80;35.70;;;;;;5990150;29;20071;-72
2022/07/18 00:26:17;;;;;;;3.00;2.13;;;29.80;36.50;;;;;;5990493;29;20058;-73
2022/07/18 00:29:18;;;;;;;3.03;2.30;;;29.80;36.00;;;;;;5990803;29;20036;-73
2022/07/18 00:32:19;;;;;;;2.70;2.30;;;29.70;36.10;;;;;;5989805;29;20031;-73
2022/07/18 00:35:20;;;;;;;7.10;2.13;;;29.70;36.20;;;;;;5990719;29;20175;-73
2022/07/18 00:38:21;;;;;;;2.45;2.17;;;29.60;36.20;;;;;;5989711;29;20041;-73
2022/07/18 00:41:23;;;;;;;3.88;1.90;;;29.60;36.20;;;;;;5984397;29;20121;-73
2022/07/18 00:44:26;;;;;;;2.78;1.85;;;29.60;36.10;;;;;;5989930;29;20369;-73
2022/07/18 00:47:27;;;;;;;2.00;1.80;;;29.50;36.20;;;;;;5987489;29;20030;-72
2022/07/18 00:50:28;;;;;;;2.60;2.05;;;29.50;36.30;;;;;;5988283;29;20360;-73
2022/07/18 00:53:28;;;;;;;9.10;2.28;;;29.50;36.40;;;;;;5987752;29;20043;-71
2022/07/18 00:56:30;;;;;;;3.38;2.65;;;29.50;37.10;;;;;;6002746;29;20401;-71
2022/07/18 01:02:53;;;;;;;3.03;2.10;;;29.40;36.50;;;;;;5988296;29;20065;-72
2022/07/18 01:05:54;;;;;;;3.20;1.77;;;29.40;36.60;;;;;;5987720;29;20046;-74
2022/07/18 01:08:57;;;;;;;5.32;2.40;;;29.30;36.50;;;;;;5989811;29;20054;-72
2022/07/18 01:11:58;;;;;;;2.72;2.10;;;29.30;36.60;;;;;;5990213;29;20702;-73
2022/07/18 01:14:59;;;;;;;4.13;2.47;;;29.30;36.50;;;;;;5990196;29;20124;-73
2022/07/18 01:18:00;;;;;;;3.90;2.10;;;29.20;36.60;;;;;;5989554;29;20483;-73
2022/07/18 01:21:01;;;;;;;4.45;2.53;;;29.20;36.80;;;;;;5990684;29;20494;-72
2022/07/18 01:24:02;;;;;;;7.28;2.63;;;29.20;36.90;;;;;;5988248;29;20342;-72
2022/07/18 01:27:03;;;;;;;8.38;2.08;;;29.20;37.00;;;;;;5988821;29;20030;-72
2022/07/18 01:30:05;;;;;;;2.75;2.08;;;29.10;37.10;;;;;;5989983;29;20042;-72
2022/07/18 01:33:06;;;;;;;2.55;2.35;;;29.00;37.30;;;;;;6003934;29;20042;-72
2022/07/18 01:36:08;;;;;;;2.70;1.85;;;29.00;37.50;;;;;;5980685;29;20098;-73
2022/07/18 01:39:09;;;;;;;5.55;2.45;;;28.90;37.50;;;;;;5989270;29;20125;-72
2022/07/18 01:42:11;;;;;;;5.95;2.58;;;28.90;37.60;;;;;;5988099;29;20046;-72
2022/07/18 01:45:12;;;;;;;3.05;2.28;;;28.90;37.60;;;;;;5988460;29;20042;-72
2022/07/18 01:48:13;;;;;;;6.53;2.20;;;28.80;37.60;;;;;;6000999;29;20042;-71
2022/07/18 01:51:14;;;;;;;4.18;2.33;;;28.80;37.70;;;;;;5987009;29;20123;-72
2022/07/18 01:54:16;;;;;;;3.25;2.35;;;28.70;37.70;;;;;;5987023;29;20140;-72
2022/07/18 01:57:17;;;;;;;3.22;2.17;;;28.70;37.90;;;;;;5987368;29;20369;-73
2022/07/18 02:00:17;;;;;;;2.60;2.30;;;28.70;38.10;;;;;;5985871;29;20465;-72
2022/07/18 02:03:18;;;;;;;2.95;2.00;;;28.60;38.20;;;;;;6003468;29;20053;-72
2022/07/18 02:06:19;;;;;;;2.83;2.20;;;28.60;38.50;;;;;;5989048;29;20117;-73
2022/07/18 02:09:20;;;;;;;3.67;2.30;;;28.50;38.60;;;;;;5979536;29;20425;-73
2022/07/18 02:12:21;;;;;;;5.75;2.13;;;28.50;38.60;;;;;;5989266;29;20038;-72
2022/07/18 02:15:23;;;;;;;4.13;2.13;;;28.40;38.60;;;;;;5988501;29;20126;-73
2022/07/18 02:18:24;;;;;;;4.68;2.60;;;28.40;38.70;;;;;;6004036;29;20476;-72
2022/07/18 02:21:25;;;;;;;4.10;2.17;;;28.30;38.60;;;;;;6002737;29;20086;-72
2022/07/18 02:24:26;;;;;;;5.07;2.65;;;28.30;38.80;;;;;;5988300;29;20533;-72
2022/07/18 02:27:27;;;;;;;5.80;2.50;;;28.20;38.80;;;;;;5988719;29;20494;-72
2022/07/18 02:30:28;;;;;;;3.00;2.22;;;28.20;38.90;;;;;;5988657;29;20046;-71
2022/07/18 02:33:29;;;;;;;2.92;2.30;;;28.20;38.90;;;;;;5988794;29;20026;-73
2022/07/18 02:36:30;;;;;;;5.40;2.65;;;28.10;38.80;;;;;;5991497;29;20069;-73
2022/07/18 02:39:31;;;;;;;4.90;2.65;;;28.10;38.90;;;;;;5992661;29;20121;-73
2022/07/18 02:42:32;;;;;;;3.00;2.13;;;28.10;38.70;;;;;;5992013;29;20664;-73
2022/07/18 02:45:33;;;;;;;4.18;2.38;;;28.10;38.60;;;;;;5990838;29;20031;-73
2022/07/18 02:48:34;;;;;;;2.75;2.03;;;28.00;38.40;;;;;;5994440;29;20035;-71
2022/07/18 02:51:35;;;;;;;5.20;2.22;;;28.00;38.40;;;;;;5990297;29;20022;-71
2022/07/18 02:54:37;;;;;;;3.60;1.98;;;27.90;38.40;;;;;;6004865;29;20046;-71
2022/07/18 02:57:39;;;;;;;3.67;2.25;;;27.90;38.50;;;;;;5984803;29;20066;-71
2022/07/18 03:00:39;;;;;;;4.85;2.42;;;27.80;38.40;;;;;;5992005;29;20064;-72
2022/07/18 03:03:40;;;;;;;3.03;2.50;;;27.80;38.50;;;;;;6006781;29;20433;-72
2022/07/18 03:06:41;;;;;;;5.00;2.50;;;27.70;38.50;;;;;;5992404;29;20534;-73
2022/07/18 03:09:42;;;;;;;5.60;2.67;;;27.70;38.60;;;;;;6006577;29;20034;-73
2022/07/18 03:12:43;;;;;;;2.70;2.40;;;27.60;38.70;;;;;;6006670;29;20384;-72
2022/07/18 03:15:44;;;;;;;5.35;2.30;;;27.60;38.80;;;;;;5991301;29;20134;-72
2022/07/18 03:18:46;;;;;;;7.03;2.40;;;27.50;38.70;;;;;;5991863;29;20034;-72
2022/07/18 03:21:47;;;;;;;4.70;2.50;;;27.50;38.80;;;;;;6006290;29;20038;-72
2022/07/18 03:24:48;;;;;;;7.47;2.15;;;27.60;38.90;;;;;;5991764;29;20099;-72
2022/07/18 03:27:49;;;;;;;2.97;2.20;;;27.60;39.00;;;;;;5991561;29;20032;-72
2022/07/18 03:30:50;;;;;;;6.38;2.45;;;27.50;39.10;;;;;;5992292;29;20109;-72
2022/07/18 03:33:51;;;;;;;6.18;2.38;;;27.50;39.20;;;;;;5991823;29;20372;-73
2022/07/18 03:36:52;;;;;;;8.10;2.92;;;27.50;39.30;;;;;;5989445;29;20201;-73
2022/07/18 03:39:52;;;;;;;4.32;2.78;;;27.50;39.50;;;;;;5989166;29;20084;-72
2022/07/18 03:42:53;;;;;;;15.45;2.72;;;27.50;39.50;;;;;;5989728;29;20085;-72
2022/07/18 03:45:54;;;;;;;5.53;2.47;;;27.50;39.50;;;;;;5988354;29;20107;-72
2022/07/18 03:48:55;;;;;;;3.58;2.47;;;27.50;39.50;;;;;;5984505;29;20424;-72
2022/07/18 03:51:56;;;;;;;3.70;2.53;;;27.60;39.50;;;;;;5988121;29;20107;-72
2022/07/18 03:54:57;;;;;;;4.15;2.50;;;27.60;39.40;;;;;;5980647;29;20072;-72
2022/07/18 03:57:58;;;;;;;6.45;2.90;;;27.60;39.30;;;;;;5990478;29;20034;-72
2022/07/18 04:00:58;;;;;;;4.88;3.10;;;27.60;39.10;;;;;;5991701;29;20379;-72
2022/07/18 04:03:59;;;;;;;5.45;2.67;;;27.50;39.00;;;;;;5991359;29;20037;-72
2022/07/18 04:07:00;;;;;;;8.68;2.80;;;27.50;38.90;;;;;;5990779;29;20035;-72
2022/07/18 04:10:02;;;;;;;4.57;2.90;;;27.40;38.90;;;;;;5990862;29;20041;-73
2022/07/18 04:13:02;;;;;;;7.72;3.25;;;27.40;38.80;;;;;;5991245;29;20034;-73
2022/07/18 04:16:03;;;;;;;4.55;2.80;;;27.30;38.70;;;;;;6005215;29;20042;-72
2022/07/18 04:19:04;;;;;;;9.23;3.13;;;27.30;38.90;;;;;;5991303;29;20478;-71
2022/07/18 04:22:05;;;;;;;5.95;2.90;;;27.30;39.00;;;;;;5990424;29;20093;-72
2022/07/18 04:25:06;;;;;;;7.47;3.00;;;27.20;39.00;;;;;;5990604;29;20117;-71
2022/07/18 04:28:10;;;;;;;7.30;2.80;;;27.20;39.10;;;;;;5990076;29;20455;-73
2022/07/18 04:31:11;;;;;;;16.25;3.10;;;27.10;39.00;;;;;;5990109;29;20337;-73
2022/07/18 04:34:12;;;;;;;5.72;2.53;;;27.20;39.00;;;;;;5990495;29;20035;-72
2022/07/18 04:37:13;;;;;;;4.85;3.00;;;27.10;38.90;;;;;;5987681;29;20092;-73
2022/07/18 04:40:15;;;;;;;5.95;2.50;;;27.10;39.00;;;;;;6003402;29;20349;-73
2022/07/18 04:43:16;;;;;;;5.47;2.47;;;27.00;39.10;;;;;;5988771;29;20421;-73
2022/07/18 04:46:17;;;;;;;8.27;3.10;;;27.00;39.40;;;;;;5988609;29;20027;-73
2022/07/18 04:49:18;;;;;;;3.22;2.53;;;26.90;40.10;;;;;;5988095;29;20030;-73
2022/07/18 04:52:19;;;;;;;6.88;2.50;;;26.90;39.60;;;;;;5990195;29;20692;-73
2022/07/18 04:55:21;;;;;;;4.07;2.50;;;26.90;39.50;;;;;;5989100;29;20034;-73
2022/07/18 04:58:22;;;;;;;4.20;2.72;;;26.80;39.40;;;;;;5991231;29;20036;-73
2022/07/18 05:01:23;;;;;;;12.90;2.83;;;26.70;39.40;;;;;;5990493;29;20350;-73
2022/07/18 05:04:24;;;;;;;3.67;2.65;;;26.70;39.60;;;;;;5990163;29;20030;-73
2022/07/18 05:07:25;;;;;;;5.18;2.63;;;26.60;39.80;;;;;;6004233;29;20427;-73
2022/07/18 05:10:26;;;;;;;7.20;2.80;;;26.60;39.90;;;;;;5988569;29;20091;-73
2022/07/18 05:13:27;;;;;;;5.75;2.83;;;26.50;39.90;;;;;;6004255;29;20030;-73
2022/07/18 05:16:28;;;;;;;3.75;2.50;;;26.50;40.00;;;;;;6003892;29;20038;-73
2022/07/18 05:19:29;;;;;;;4.60;2.42;;;26.60;39.90;;;;;;5989067;29;20042;-73
2022/07/18 05:22:31;;;;;;;6.22;3.05;;;26.60;39.90;;;;;;5989642;29;20026;-73
2022/07/18 05:25:32;;;;;;;6.28;3.17;;;26.70;39.90;;;;;;5989596;29;20431;-73
2022/07/18 05:28:33;;;;;;;4.15;2.45;;;26.80;39.80;;;;;;5988654;29;20038;-73
2022/07/18 05:31:34;;;;;;;3.95;2.65;;;26.90;39.90;;;;;;5988098;29;20050;-72
2022/07/18 05:34:35;;;;;;;6.97;2.55;;;26.90;39.90;;;;;;5987492;29;20026;-72
2022/07/18 05:37:37;;;;;;;3.60;2.53;;;27.00;40.00;;;;;;6001591;29;20042;-73
2022/07/18 05:40:38;;;;;;;12.52;3.00;;;27.00;40.00;;;;;;5999986;29;20104;-74
2022/07/18 05:43:39;;;;;;;9.32;2.38;;;27.00;40.10;;;;;;5987164;29;20042;-74
2022/07/18 05:46:39;;;;;;;7.40;2.63;;;27.00;40.10;;;;;;5987888;29;20121;-74
2022/07/18 05:49:40;;;;;;;11.25;2.58;;;27.00;40.10;;;;;;5988568;29;20038;-73
2022/07/18 05:52:41;;;;;;;12.55;2.95;;;27.10;40.20;;;;;;5988798;29;20186;-73
2022/07/18 05:55:42;;;;;;;5.57;2.80;;;27.10;40.10;;;;;;5989365;29;20034;-73
2022/07/18 05:58:43;;;;;;;6.68;2.78;;;27.10;39.90;;;;;;5977863;29;20350;-73
2022/07/18 06:01:44;;;;;;;7.80;2.75;;;27.10;39.70;;;;;;5988765;29;20037;-73
2022/07/18 06:04:45;;;;;;;7.65;3.20;;;27.10;39.60;;;;;;5989220;29;20053;-72
2022/07/18 06:07:45;;;;;;;3.53;2.20;;;27.10;39.50;;;;;;5987176;29;20038;-72
2022/07/18 06:10:46;;;;;;;5.88;3.05;;;27.20;39.40;;;;;;5990175;29;20465;-72
2022/07/18 06:13:48;;;;;;;7.15;3.25;;;27.20;39.30;;;;;;5993147;29;20050;-72
2022/07/18 06:16:49;;;;;;;6.57;2.78;;;27.30;39.00;;;;;;5992571;29;20026;-73
2022/07/18 06:19:50;;;;;;;5.57;3.05;;;27.30;38.50;;;;;;5993116;29;20041;-73
2022/07/18 06:22:51;;;;;;;11.60;3.83;;;27.30;38.30;;;;;;5992005;29;20019;-72
2022/07/18 06:25:52;;;;;;;5.40;2.80;;;27.30;38.10;;;;;;5991084;29;20361;-73
2022/07/18 06:28:53;;;;;;;10.90;3.55;;;27.30;38.20;;;;;;6005668;29;20041;-71
2022/07/18 06:31:54;;;;;;;5.05;2.78;;;27.30;38.50;;;;;;5990147;29;20042;-74
2022/07/18 06:34:55;;;;;;;5.85;3.47;;;27.40;38.60;;;;;;5990058;29;20503;-72
2022/07/18 06:37:55;;;;;;;12.77;3.17;;;27.40;38.60;;;;;;5990927;29;20042;-72
2022/07/18 06:40:56;;;;;;;4.97;2.90;;;27.40;38.50;;;;;;6008035;29;20039;-71
2022/07/18 06:43:57;;;;;;;9.02;3.00;;;27.50;38.60;;;;;;5991075;29;20030;-72
2022/07/18 06:46:59;;;;;;;7.28;2.75;;;27.50;38.30;;;;;;5989972;29;20116;-72
2022/07/18 06:50:00;;;;;;;10.60;3.13;;;27.60;38.20;;;;;;6000206;29;20030;-72
2022/07/18 06:53:00;;;;;;;5.15;2.72;;;27.70;37.90;;;;;;5994441;29;20472;-73
2022/07/18 06:56:05;;;;;;;4.03;2.85;;;27.80;38.20;;;;;;6003968;29;20037;-72
2022/07/18 06:59:05;;;;;;;9.32;2.65;;;27.90;37.40;;;;;;5989264;29;20384;-72
2022/07/18 07:02:06;;;;;;;5.93;3.63;;;28.00;37.00;;;;;;5991241;29;20094;-73
2022/07/18 07:05:08;;;;;;;3.42;2.55;;;28.20;36.80;;;;;;5991282;29;20045;-72
2022/07/18 07:08:09;;;;;;;3.78;2.40;;;28.30;36.30;;;;;;5990966;29;20345;-72
2022/07/18 07:11:10;;;;;;;5.13;2.50;;;28.40;36.00;;;;;;5991276;29;20125;-71
2022/07/18 07:14:11;;;;;;;6.93;2.95;;;28.60;35.60;;;;;;5990996;29;20033;-71
2022/07/18 07:17:12;;;;;;;6.38;2.65;;;28.70;35.40;;;;;;5991540;29;20031;-72
2022/07/18 07:20:14;;;;;;;4.65;2.80;;;29.00;35.00;;;;;;5991379;29;20042;-72
2022/07/18 07:23:16;;;;;;;12.05;2.38;;;29.10;34.50;;;;;;5991485;29;20040;-73
2022/07/18 07:26:17;;;;;;;3.85;2.28;;;29.30;34.10;;;;;;5991063;29;20038;-73
2022/07/18 07:29:18;;;;;;;10.55;2.92;;;29.50;33.50;;;;;;5992101;29;20034;-70
2022/07/18 07:32:19;;;;;;;12.80;2.78;;;29.50;32.90;;;;;;5986223;29;20045;-72
2022/07/18 07:35:20;;;;;;;6.95;2.90;;;29.60;32.80;;;;;;5974978;29;20030;-72
2022/07/18 07:38:27;;;;;;;11.68;2.50;;;29.70;32.60;;;;;;6000205;29;20049;-72
2022/07/18 07:41:28;;;;;;;5.03;2.60;;;29.80;32.60;;;;;;5989582;29;20547;-72
2022/07/18 07:44:29;;;;;;;7.30;2.70;;;29.90;32.60;;;;;;5989597;29;20030;-73
2022/07/18 07:47:30;;;;;;;11.13;2.90;;;30.00;32.40;;;;;;5989061;29;20030;-72
2022/07/18 07:50:31;;;;;;;6.70;3.15;;;30.10;32.30;;;;;;5989821;29;20183;-72
2022/07/18 07:53:32;;;;;;;16.77;4.10;;;30.20;32.10;;;;;;5989251;29;20522;-73
2022/07/18 07:56:33;;;;;;;8.68;3.63;;;30.30;31.80;;;;;;5990481;29;20105;-72
2022/07/18 07:59:34;;;;;;;12.65;3.28;;;30.40;31.90;;;;;;5991030;29;20031;-74
2022/07/18 08:02:36;;;;;;;9.23;3.35;;;30.40;32.00;;;;;;5990287;29;20034;-73
2022/07/18 08:05:44;;;;;;;10.13;4.03;;;30.50;31.90;;;;;;5990564;29;20380;-72
2022/07/18 08:08:45;;;;;;;8.07;3.42;;;30.70;31.80;;;;;;5990446;29;20060;-73
2022/07/18 08:11:46;;;;;;;16.48;3.28;;;30.80;31.60;;;;;;5990167;29;20037;-72
2022/07/18 08:14:47;;;;;;;10.93;2.90;;;30.90;31.20;;;;;;5990174;29;20780;-72
2022/07/18 08:17:47;;;;;;;6.57;2.60;;;30.90;30.90;;;;;;5988800;29;20050;-72
2022/07/18 08:20:48;;;;;;;5.35;2.78;;;31.00;30.70;;;;;;5986654;29;20034;-72
2022/07/18 08:23:49;;;;;;;8.18;2.70;;;31.10;30.50;;;;;;6001841;29;20117;-72
2022/07/18 08:26:50;;;;;;;5.35;2.42;;;31.30;30.50;;;;;;5981959;29;20110;-71
2022/07/18 08:29:51;;;;;;;7.78;2.58;;;31.40;30.00;;;;;;5984274;29;20441;-72
2022/07/18 08:32:52;;;;;;;6.50;2.58;;;31.50;29.90;;;;;;6003671;29;20078;-72
2022/07/18 08:35:53;;;;;;;4.72;2.63;;;31.60;29.70;;;;;;6004027;29;20038;-71
2022/07/18 08:38:54;;;;;;;13.02;3.08;;;31.60;29.70;;;;;;5989840;29;20042;-70
2022/07/18 08:41:56;;;;;;;8.55;2.50;;;31.70;29.80;;;;;;5989227;29;20122;-74
2022/07/18 08:44:57;;;;;;;8.80;3.28;;;31.80;29.80;;;;;;5989570;29;20038;-71
2022/07/18 08:47:58;;;;;;;3.42;2.30;;;31.90;29.80;;;;;;5990068;29;20122;-71
2022/07/18 08:51:00;;;;;;;5.43;2.80;;;31.90;29.80;;;;;;5989435;29;20357;-70
2022/07/18 08:54:03;;;;;;;8.23;2.33;;;32.00;29.80;;;;;;6002330;29;20050;-70
2022/07/18 08:57:04;;;;;;;4.82;2.67;;;32.10;29.80;;;;;;5975719;29;20038;-70
2022/07/18 09:00:06;;;;;;;11.65;2.95;;;32.20;29.60;;;;;;5989060;29;20061;-71
2022/07/18 09:03:07;;;;;;;14.07;3.00;;;32.30;29.20;;;;;;5989027;29;20038;-72
2022/07/18 09:06:13;;;;;;;7.22;4.32;;;32.50;29.00;;;;;;5990126;29;20035;-71
2022/07/18 09:09:15;;;;;;;10.32;4.68;;;32.60;28.40;;;;;;6002501;29;20121;-71
2022/07/18 09:12:16;;;;;;;6.30;2.92;;;32.80;28.20;;;;;;5987318;29;20034;-71
2022/07/18 09:15:17;;;;;;;7.22;4.00;;;32.90;27.90;;;;;;6001660;29;20117;-71
2022/07/18 09:18:30;;;;;;;11.07;5.03;;;32.90;27.80;;;;;;5987311;29;20030;-71
2022/07/18 09:21:35;;;;;;;13.50;6.68;;;33.10;27.80;;;;;;5987344;29;20026;-71
2022/07/18 09:25:11;;;;;;;17.20;8.35;;;33.20;27.30;;;;;;5985867;29;20125;-71
2022/07/18 09:28:12;;;;;;;8.32;4.65;;;33.30;27.50;;;;;;5971916;29;20158;-71
2022/07/18 09:31:20;;;;;;;5.53;3.50;;;33.30;27.30;;;;;;5972073;29;20042;-71
2022/07/18 09:34:36;;;;;;;6.55;2.85;;;33.30;27.40;;;;;;5986013;29;20034;-72
2022/07/18 09:37:39;;;;;;;6.07;3.78;;;33.40;27.30;;;;;;5986132;29;20063;-71
2022/07/18 09:40:44;;;;;;;8.27;3.00;;;33.50;27.10;;;;;;5983254;29;20528;-71
2022/07/18 09:43:44;;;;;;;6.57;3.50;;;33.60;26.90;;;;;;5986403;29;20049;-73
2022/07/18 09:47:02;;;;;;;10.38;4.38;;;33.60;26.80;;;;;;5985072;29;20333;-71
2022/07/18 09:50:03;;;;;;;8.63;3.25;;;33.60;26.80;;;;;;5971140;29;20041;-71
2022/07/18 09:53:06;;;;;;;7.60;2.95;;;33.70;26.90;;;;;;5985749;29;20484;-71
2022/07/18 09:56:08;;;;;;;6.38;3.42;;;33.70;26.80;;;;;;5978812;29;20591;-72
2022/07/18 09:59:10;;;;;;;8.05;3.03;;;33.80;26.80;;;;;;5986345;29;20413;-71
2022/07/18 10:02:11;;;;;;;3.97;2.78;;;33.90;26.70;;;;;;5985922;29;20151;-71
2022/07/18 10:05:13;;;;;;;4.93;3.30;;;34.00;26.50;;;;;;5980074;29;20350;-71
2022/07/18 10:08:16;;;;;;;6.93;3.45;;;34.10;26.50;;;;;;6000105;29;20373;-72
2022/07/18 10:11:17;;;;;;;8.32;3.60;;;34.20;26.50;;;;;;5994135;29;20030;-71
2022/07/18 10:14:18;;;;;;;5.00;3.03;;;34.20;26.40;;;;;;5985991;29;20048;-72
2022/07/18 10:17:20;;;;;;;9.93;3.08;;;34.30;26.50;;;;;;5969640;29;20083;-72
2022/07/18 10:20:32;;;;;;;7.68;3.65;;;34.30;26.50;;;;;;5973294;29;20038;-72
2022/07/18 10:23:42;;;;;;;10.90;4.18;;;34.40;26.90;;;;;;5979376;29;20038;-72
2022/07/18 10:26:43;;;;;;;5.70;3.15;;;34.50;26.40;;;;;;5986735;29;20065;-72
2022/07/18 10:30:07;;;;;;;5.00;2.95;;;34.60;26.30;;;;;;6003169;29;20049;-71
2022/07/18 10:33:45;;;;;;;8.73;3.70;;;34.70;26.10;;;;;;5987652;29;20744;-71
2022/07/18 10:36:52;;;;;;;6.03;3.17;;;34.90;26.10;;;;;;5998870;29;20100;-71
2022/07/18 10:39:54;;;;;;;9.93;5.57;;;35.00;25.90;;;;;;6002680;29;20062;-71
2022/07/18 10:43:30;;;;;;;5.25;3.08;;;35.00;25.50;;;;;;5987941;29;20164;-71
2022/07/18 10:50:09;;;;;;;5.70;2.80;;;35.10;25.60;;;;;;5985647;29;20051;-72
2022/07/18 10:53:10;;;;;;;7.15;3.08;;;35.20;25.70;;;;;;5985687;29;20125;-71
2022/07/18 10:56:11;;;;;;;5.55;2.33;;;35.30;25.70;;;;;;5986463;29;20315;-71
2022/07/18 10:59:38;;;;;;;11.10;3.05;;;35.30;25.60;;;;;;5988710;29;20060;-71
2022/07/18 11:02:41;;;;;;;7.00;3.03;;;35.50;25.70;;;;;;5987782;29;20054;-71
2022/07/18 11:05:45;;;;;;;10.52;3.13;;;35.50;25.60;;;;;;5987824;29;20174;-70
2022/07/18 11:08:46;;;;;;;4.55;2.75;;;35.80;25.50;;;;;;5986454;29;20047;-72
2022/07/18 11:12:18;;;;;;;3.72;2.65;;;36.70;24.90;;;;;;5986774;29;20045;-72
2022/07/18 11:15:19;;;;;;;6.40;2.90;;;37.70;24.00;;;;;;5986455;29;20049;-72
2022/07/18 11:18:20;;;;;;;3.47;2.65;;;38.70;23.30;;;;;;5988149;29;20050;-71
2022/07/18 11:21:28;;;;;;;5.13;2.38;;;39.50;22.60;;;;;;5989333;29;20031;-70
2022/07/18 11:24:29;;;;;;;7.30;2.95;;;40.10;21.90;;;;;;5991047;29;20042;-71
2022/07/18 11:27:30;;;;;;;3.75;2.60;;;40.60;21.40;;;;;;5990915;29;20733;-72
2022/07/18 11:30:31;;;;;;;5.65;2.97;;;41.10;21.60;;;;;;5991152;29;20191;-71
2022/07/18 11:33:37;;;;;;;10.40;2.70;;;41.30;20.80;;;;;;5991792;29;20030;-72
2022/07/18 11:36:42;;;;;;;6.03;2.80;;;41.50;21.10;;;;;;6005812;29;20077;-72
2022/07/18 11:39:43;;;;;;;11.60;3.30;;;41.60;20.60;;;;;;5989474;29;20050;-71
2022/07/18 11:42:44;;;;;;;6.18;2.72;;;41.70;20.50;;;;;;5990932;29;20091;-72
2022/07/18 11:45:45;;;;;;;7.85;2.67;;;41.80;20.40;;;;;;5990363;29;20100;-72
2022/07/18 11:48:47;;;;;;;9.10;2.75;;;42.10;20.10;;;;;;5984283;29;20099;-71
2022/07/18 11:51:49;;;;;;;5.28;2.90;;;42.30;19.90;;;;;;5991425;29;20037;-72
2022/07/18 11:54:50;;;;;;;4.70;2.80;;;42.40;20.00;;;;;;6003449;29;20050;-72
2022/07/18 11:57:51;;;;;;;5.28;2.60;;;42.50;19.80;;;;;;5990063;29;20038;-71
2022/07/18 12:00:59;;;;;;;4.63;2.83;;;42.50;19.80;;;;;;5988731;29;20050;-71
2022/07/18 12:04:02;;;;;;;6.10;2.60;;;42.50;19.70;;;;;;5990787;29;20086;-72
2022/07/18 12:07:18;;;;;;;7.22;3.10;;;42.60;19.70;;;;;;5988457;29;20460;-72
2022/07/18 12:10:19;;;;;;;3.53;2.45;;;42.60;19.50;;;;;;5988042;29;20026;-71
2022/07/18 12:13:20;;;;;;;4.65;2.45;;;42.60;19.40;;;;;;5987327;29;20037;-71
2022/07/18 12:16:39;;;;;;;4.35;2.67;;;42.50;19.20;;;;;;5990697;29;20094;-72
2022/07/18 12:19:40;;;;;;;4.72;2.10;;;42.60;19.20;;;;;;5989861;29;20038;-72
2022/07/18 12:23:07;;;;;;;9.38;2.28;;;42.90;18.60;;;;;;6003390;29;20118;-71
2022/07/18 12:26:08;;;;;;;5.30;2.80;;;43.10;18.20;;;;;;6004713;29;20069;-71
2022/07/18 12:29:09;;;;;;;3.08;2.50;;;43.10;18.10;;;;;;5991092;29;20457;-72
2022/07/18 12:32:16;;;;;;;7.45;2.47;;;43.10;18.00;;;;;;6004516;29;20126;-73
2022/07/18 12:35:24;;;;;;;2.88;2.20;;;43.20;18.00;;;;;;5989025;29;20189;-72
2022/07/18 12:38:25;;;;;;;5.47;4.00;;;43.10;18.30;;;;;;5988627;29;20484;-71
2022/07/18 12:41:29;;;;;;;7.05;3.70;;;43.10;18.10;;;;;;5989273;29;20030;-72
2022/07/18 12:44:30;;;;;;;8.05;3.33;;;43.10;18.10;;;;;;5990360;29;20460;-71
2022/07/18 12:47:31;;;;;;;3.85;2.92;;;43.10;18.00;;;;;;5989887;29;20030;-71
2022/07/18 12:50:32;;;;;;;5.75;2.63;;;43.10;18.10;;;;;;6003420;29;20183;-71
2022/07/18 12:53:36;;;;;;;6.40;2.70;;;43.10;18.00;;;;;;5989075;29;20054;-71
2022/07/18 12:56:38;;;;;;;3.30;2.38;;;43.30;17.90;;;;;;6001042;29;20099;-70
2022/07/18 12:59:39;;;;;;;10.85;2.50;;;43.50;17.80;;;;;;5987793;29;20030;-71
2022/07/18 13:02:43;;;;;;;3.63;2.85;;;43.90;17.50;;;;;;5986736;29;20039;-71
2022/07/18 13:05:44;;;;;;;4.55;2.88;;;44.10;17.40;;;;;;5987604;29;20037;-72
2022/07/18 13:08:45;;;;;;;4.30;2.08;;;44.40;17.70;;;;;;5987451;29;20026;-71
2022/07/18 13:11:47;;;;;;;7.45;2.20;;;44.50;17.10;;;;;;5989100;29;20072;-71
2022/07/18 13:14:48;;;;;;;4.45;2.63;;;44.70;16.60;;;;;;5984613;29;20197;-71
2022/07/18 13:17:49;;;;;;;5.47;2.75;;;45.10;16.60;;;;;;5989474;29;20030;-71
2022/07/18 13:20:50;;;;;;;5.80;2.63;;;45.50;16.30;;;;;;6003527;29;20041;-71
2022/07/18 13:23:51;;;;;;;5.40;2.33;;;46.00;15.90;;;;;;6002154;29;20436;-71
2022/07/18 13:26:53;;;;;;;4.85;3.03;;;46.30;15.60;;;;;;5988270;29;20049;-71
2022/07/18 13:29:53;;;;;;;5.30;2.25;;;46.70;15.60;;;;;;5990154;29;20133;-72
2022/07/18 13:32:54;;;;;;;4.85;2.53;;;46.90;15.50;;;;;;6002142;29;20026;-72
2022/07/18 13:35:55;;;;;;;4.57;2.90;;;47.40;15.20;;;;;;5989401;29;20456;-72
2022/07/18 13:38:56;;;;;;;6.20;3.42;;;47.80;14.90;;;;;;5987919;29;20045;-72
2022/07/18 13:41:57;;;;;;;4.05;2.67;;;48.20;14.70;;;;;;5987801;29;20429;-72
2022/07/18 13:44:58;;;;;;;11.15;3.13;;;48.60;14.30;;;;;;5988670;29;20023;-72
2022/07/18 13:47:59;;;;;;;3.22;2.47;;;49.10;13.70;;;;;;6002162;29;20065;-72
2022/07/18 13:51:00;;;;;;;3.92;2.13;;;49.10;13.80;;;;;;6002256;29;20128;-72
2022/07/18 13:54:01;;;;;;;3.70;2.97;;;49.30;13.40;;;;;;5986361;29;20053;-71
2022/07/18 13:57:02;;;;;;;5.28;3.08;;;49.50;13.60;;;;;;5986344;29;20034;-72
2022/07/18 14:00:04;;;;;;;3.30;2.20;;;49.80;13.50;;;;;;6000831;29;20103;-72
2022/07/18 14:03:06;;;;;;;3.97;2.53;;;49.90;13.30;;;;;;5986702;29;20368;-72
2022/07/18 14:06:07;;;;;;;3.20;2.03;;;50.00;13.70;;;;;;5987500;29;20042;-72
2022/07/18 14:09:08;;;;;;;4.47;2.83;;;50.10;13.20;;;;;;5987886;29;20376;-72
2022/07/18 14:12:10;;;;;;;7.28;2.97;;;50.20;13.20;;;;;;5988468;29;20453;-72
2022/07/18 14:15:13;;;;;;;4.13;2.55;;;50.20;13.10;;;;;;5987435;29;20377;-72
2022/07/18 14:18:14;;;;;;;7.90;2.40;;;50.20;13.00;;;;;;5985935;29;20034;-72
2022/07/18 14:21:15;;;;;;;6.60;3.15;;;50.20;12.90;;;;;;6002552;29;20046;-72
2022/07/18 14:24:16;;;;;;;4.30;2.80;;;50.30;12.90;;;;;;5988529;29;20179;-72
2022/07/18 14:27:17;;;;;;;7.93;3.25;;;50.40;13.00;;;;;;5987888;29;20101;-72
2022/07/18 14:30:19;;;;;;;5.00;3.20;;;50.40;12.80;;;;;;5988625;29;20071;-72
2022/07/18 14:33:20;;;;;;;6.43;2.75;;;50.40;12.90;;;;;;5988753;29;20042;-72
2022/07/18 14:36:21;;;;;;;3.65;2.17;;;50.70;12.80;;;;;;5992403;29;20034;-72
2022/07/18 14:39:22;;;;;;;4.30;2.90;;;50.80;12.70;;;;;;6005311;29;20045;-72
2022/07/18 14:42:24;;;;;;;4.30;2.97;;;50.80;12.90;;;;;;5992773;29;20472;-71
2022/07/18 14:45:25;;;;;;;3.47;2.03;;;50.70;13.20;;;;;;5992469;29;20045;-72
2022/07/18 14:48:26;;;;;;;6.18;3.10;;;50.50;13.30;;;;;;5991876;29;20125;-72
2022/07/18 14:51:27;;;;;;;5.07;2.53;;;50.40;13.50;;;;;;5991430;29;20027;-72
2022/07/18 14:54:28;;;;;;;15.18;3.28;;;50.10;13.60;;;;;;5969801;29;20464;-73
2022/07/18 14:57:29;;;;;;;3.03;2.65;;;50.00;13.70;;;;;;5991475;29;20421;-72
2022/07/18 15:00:30;;;;;;;7.90;2.50;;;49.90;13.70;;;;;;5992805;29;20035;-73
2022/07/18 15:03:31;;;;;;;3.47;2.25;;;49.70;13.70;;;;;;5991898;29;20042;-72
2022/07/18 15:06:32;;;;;;;5.82;3.10;;;49.60;13.70;;;;;;5992025;29;20037;-72
2022/07/18 15:09:33;;;;;;;6.18;3.47;;;49.40;13.60;;;;;;6006470;29;20030;-72
2022/07/18 15:12:34;;;;;;;5.00;3.05;;;48.80;13.70;;;;;;5991985;29;20035;-72
2022/07/18 15:15:35;;;;;;;3.28;2.58;;;47.60;14.30;;;;;;5981889;29;20035;-72
2022/07/18 15:18:36;;;;;;;2.53;2.08;;;46.40;15.10;;;;;;5991546;29;20350;-72
2022/07/18 15:21:37;;;;;;;3.78;2.90;;;45.40;15.90;;;;;;6002923;29;20042;-72
2022/07/18 15:24:39;;;;;;;3.22;2.65;;;44.40;16.60;;;;;;5991192;29;20083;-72
2022/07/18 15:27:40;;;;;;;5.40;3.50;;;44.20;16.90;;;;;;6005293;29;20038;-72
2022/07/18 15:30:41;;;;;;;4.00;2.38;;;44.50;16.70;;;;;;5991492;29;20035;-72
2022/07/18 15:33:42;;;;;;;5.22;2.40;;;45.20;16.30;;;;;;6005741;29;20042;-72
2022/07/18 15:36:43;;;;;;;6.53;2.60;;;45.70;16.00;;;;;;5991188;29;20372;-71
2022/07/18 15:39:44;;;;;;;4.38;3.17;;;46.40;15.70;;;;;;5990777;29;20109;-71
2022/07/18 15:42:45;;;;;;;3.40;2.67;;;46.80;15.30;;;;;;5990494;29;20026;-71
2022/07/18 15:45:46;;;;;;;7.38;2.95;;;47.20;15.10;;;;;;5989165;29;20046;-71
2022/07/18 15:48:48;;;;;;;3.55;2.90;;;47.20;15.10;;;;;;5989195;29;20030;-71
2022/07/18 15:51:49;;;;;;;4.60;3.15;;;47.40;15.10;;;;;;5988568;29;20026;-71
2022/07/18 15:54:50;;;;;;;3.25;2.92;;;47.40;15.00;;;;;;5988483;29;20541;-72